In Rescue
 
Open Full Screen Window  High Contrast Mode
Wind Gusting 15 knots
10
February 23, 2019 11:51 PM EST
Weather Information
Wind Direction
  170 °
Wind Speed
  10 kt (12 mph)
Wind Gust
  15 kt (17 mph)
Altimeter
29.62 in
Visibility
10 SM
Temperature
14° C
57° F
Dewpoint
13° C
55° F
Humidity
94%
1hr Rain Fall
00.04 in.
24hr Rain Fall
00.43 in.
Sky Condition
Broken @ 7,000 ft
Broken @ 1,400 ft
Scattered @ 900 ft
MVFR

METAR KI69 240451Z AUTO 17010G15KT 10SM SCT009 BKN014 BKN070 14/13 A2962 RMK AO2 P0004 T01400130

FAA Disclaimer: The data displayed is for advisory purposes only and is not to be used for flight planning or operations.